Time;durP1;ratioP1;P1;durP2;ratioP2;P2;SDS_P1;SDS_P2;PMS_P1;PMS_P2;Temp;Humidity;BMP_temperature;BMP_pressure;BME280_temperature;BME280_humidity;BME280_pressure;Samples;Min_cycle;Max_cycle;Signal;HPM_P1;HPM_P2
2023/12/07 00:01:56;;;;;;;28.35;13.70;;;3.70;99.90;;;;;;5030842;28;20030;-80
2023/12/07 00:04:22;;;;;;;30.15;15.27;;;4.20;99.90;;;;;;5029768;28;20124;-81
2023/12/07 00:06:48;;;;;;;29.63;13.68;;;3.70;99.90;;;;;;5021372;28;20096;-82
2023/12/07 00:09:14;;;;;;;26.90;14.57;;;3.70;99.90;;;;;;5028663;28;20026;-82
2023/12/07 00:11:41;;;;;;;29.50;13.65;;;3.70;99.90;;;;;;5010532;28;20025;-82
2023/12/07 00:14:06;;;;;;;25.50;13.63;;;3.60;99.90;;;;;;5010518;28;20030;-81
2023/12/07 00:16:32;;;;;;;38.00;15.23;;;3.70;99.90;;;;;;5018060;28;20057;-81
2023/12/07 00:18:58;;;;;;;34.53;16.02;;;3.70;99.90;;;;;;5013479;28;20028;-81
2023/12/07 00:21:25;;;;;;;30.15;15.63;;;3.70;99.90;;;;;;5015277;28;20046;-85
2023/12/07 00:23:50;;;;;;;30.20;15.38;;;3.60;99.90;;;;;;5011299;28;20057;-82
2023/12/07 00:26:16;;;;;;;31.58;15.52;;;3.70;99.90;;;;;;5016193;28;20026;-82
2023/12/07 00:28:42;;;;;;;39.15;16.10;;;3.70;99.90;;;;;;5018228;28;20081;-83
2023/12/07 00:31:09;;;;;;;34.88;15.63;;;3.70;99.90;;;;;;5016276;28;20497;-80
2023/12/07 00:33:34;;;;;;;28.92;14.85;;;4.50;99.90;;;;;;5015633;28;20056;-80
2023/12/07 00:36:00;;;;;;;28.98;15.95;;;3.70;99.90;;;;;;5006953;28;20087;-82
2023/12/07 00:38:26;;;;;;;38.80;16.63;;;3.70;99.90;;;;;;5011775;28;20041;-85
2023/12/07 00:40:51;;;;;;;29.33;14.73;;;3.70;99.90;;;;;;5012402;28;20084;-80
2023/12/07 00:43:17;;;;;;;31.00;16.33;;;3.70;99.90;;;;;;5010256;28;20482;-81
2023/12/07 00:45:42;;;;;;;27.25;13.82;;;3.70;99.90;;;;;;5011338;28;20040;-83
2023/12/07 00:48:08;;;;;;;35.85;17.63;;;3.70;99.90;;;;;;5008946;28;20124;-81
2023/12/07 00:50:33;;;;;;;32.75;15.80;;;3.70;99.90;;;;;;5014687;28;20026;-84
2023/12/07 00:52:59;;;;;;;26.08;14.57;;;3.70;99.90;;;;;;5012267;28;20030;-80
2023/12/07 00:55:25;;;;;;;31.88;15.48;;;3.70;99.90;;;;;;5006337;28;20405;-81
2023/12/07 00:57:50;;;;;;;29.90;14.93;;;3.70;99.90;;;;;;5014967;28;20060;-82
2023/12/07 01:00:16;;;;;;;33.78;15.60;;;4.10;99.90;;;;;;5008245;28;20110;-81
2023/12/07 01:02:42;;;;;;;28.40;15.30;;;3.70;99.90;;;;;;5007083;28;20085;-85
2023/12/07 01:05:08;;;;;;;34.55;17.25;;;4.90;99.90;;;;;;5012978;28;20025;-80
2023/12/07 01:07:34;;;;;;;32.40;14.85;;;3.70;99.90;;;;;;5016861;28;20045;-82
2023/12/07 01:09:59;;;;;;;29.70;14.50;;;3.70;99.90;;;;;;5012100;28;20467;-80
2023/12/07 01:12:25;;;;;;;28.48;14.43;;;3.60;99.90;;;;;;5007203;28;20093;-80
2023/12/07 01:14:51;;;;;;;27.42;14.13;;;3.60;99.90;;;;;;5009820;28;20030;-81
2023/12/07 01:17:17;;;;;;;29.05;14.15;;;3.60;99.90;;;;;;5010077;28;20031;-83
2023/12/07 01:19:43;;;;;;;25.98;14.15;;;3.60;99.90;;;;;;5017089;28;20090;-81
2023/12/07 01:22:09;;;;;;;31.38;15.10;;;3.80;99.90;;;;;;5018692;28;20065;-83
2023/12/07 01:24:34;;;;;;;29.00;15.90;;;3.50;99.90;;;;;;4994147;28;20402;-83
2023/12/07 01:27:00;;;;;;;30.63;14.20;;;3.50;99.90;;;;;;5010554;28;20037;-83
2023/12/07 01:29:26;;;;;;;28.15;15.18;;;3.50;99.90;;;;;;5009595;28;20037;-81
2023/12/07 01:31:51;;;;;;;27.70;14.45;;;3.50;99.90;;;;;;5017740;28;20159;-80
2023/12/07 01:34:18;;;;;;;29.80;14.65;;;3.50;99.90;;;;;;5019578;28;20493;-82
2023/12/07 01:36:44;;;;;;;29.95;14.68;;;3.50;99.90;;;;;;5015375;28;20135;-81
2023/12/07 01:39:12;;;;;;;28.60;14.90;;;4.20;99.90;;;;;;5015655;28;20434;-82
2023/12/07 01:41:39;;;;;;;23.60;13.65;;;3.50;99.90;;;;;;5018811;28;20057;-84
2023/12/07 01:44:04;;;;;;;26.67;13.77;;;3.60;99.90;;;;;;5009085;28;20034;-81
2023/12/07 01:46:31;;;;;;;29.63;14.38;;;3.60;99.90;;;;;;5022621;28;20038;-83
2023/12/07 01:48:57;;;;;;;28.77;13.60;;;4.00;99.90;;;;;;5021182;28;20052;-80
2023/12/07 01:51:22;;;;;;;31.52;15.60;;;3.40;99.90;;;;;;5025010;28;20021;-86
2023/12/07 01:53:49;;;;;;;27.63;14.63;;;3.40;99.90;;;;;;5014528;28;20033;-85
2023/12/07 01:56:15;;;;;;;26.10;13.30;;;4.60;99.90;;;;;;5019939;28;20030;-83
2023/12/07 01:58:42;;;;;;;30.02;14.93;;;4.60;99.90;;;;;;5017838;28;20029;-85
2023/12/07 02:01:09;;;;;;;34.20;16.08;;;3.40;99.90;;;;;;5018007;28;20037;-84
2023/12/07 02:03:35;;;;;;;28.02;14.60;;;3.30;99.90;;;;;;5018913;28;20026;-85
2023/12/07 02:06:01;;;;;;;29.10;13.77;;;3.40;99.90;;;;;;5022740;28;20482;-82
2023/12/07 02:08:27;;;;;;;34.10;16.13;;;3.40;99.90;;;;;;5021898;28;20013;-84
2023/12/07 02:10:53;;;;;;;29.30;15.48;;;3.60;99.90;;;;;;5020838;28;20044;-83
2023/12/07 02:13:20;;;;;;;30.75;15.52;;;3.40;99.90;;;;;;5022232;28;20060;-83
2023/12/07 02:15:46;;;;;;;34.28;17.17;;;3.40;99.90;;;;;;5021582;28;20049;-85
2023/12/07 02:18:17;;;;;;;31.10;16.27;;;3.40;99.90;;;;;;5023376;28;20152;-82
2023/12/07 02:20:45;;;;;;;31.35;15.88;;;3.50;99.90;;;;;;5026075;28;20037;-83
2023/12/07 02:23:14;;;;;;;28.52;14.60;;;4.00;99.90;;;;;;5021556;28;20165;-82
2023/12/07 02:25:48;;;;;;;31.88;16.08;;;3.50;99.90;;;;;;5015733;28;20041;-82
2023/12/07 02:28:13;;;;;;;32.53;17.02;;;3.50;99.90;;;;;;5017749;28;20022;-82
2023/12/07 02:30:39;;;;;;;31.67;15.18;;;4.70;99.90;;;;;;5014344;28;20088;-82
2023/12/07 02:33:05;;;;;;;33.05;16.50;;;3.50;99.90;;;;;;5020428;28;20054;-81
2023/12/07 02:35:31;;;;;;;27.17;14.90;;;3.70;99.90;;;;;;5015817;28;20398;-81
2023/12/07 02:37:58;;;;;;;30.92;15.88;;;3.60;99.90;;;;;;5016679;28;20080;-81
2023/12/07 02:40:27;;;;;;;30.25;14.98;;;3.50;99.90;;;;;;5011802;28;20035;-83
2023/12/07 02:42:57;;;;;;;28.35;14.55;;;4.70;99.90;;;;;;5018807;28;20375;-82
2023/12/07 02:45:23;;;;;;;30.40;14.73;;;3.70;99.90;;;;;;5014814;28;20026;-84
2023/12/07 02:47:48;;;;;;;29.00;15.18;;;3.40;99.90;;;;;;5008104;28;20486;-81
2023/12/07 02:50:15;;;;;;;28.98;15.52;;;3.40;99.90;;;;;;5015506;28;20049;-80
2023/12/07 02:52:40;;;;;;;38.15;16.88;;;3.70;99.90;;;;;;5025856;28;20089;-84
2023/12/07 02:55:07;;;;;;;36.42;17.73;;;4.10;99.90;;;;;;5022977;28;20072;-84
2023/12/07 02:57:35;;;;;;;31.52;16.08;;;3.40;99.90;;;;;;5026054;28;20061;-86
2023/12/07 03:00:06;;;;;;;29.40;14.80;;;3.40;99.90;;;;;;5028805;28;20528;-86
2023/12/07 03:02:35;;;;;;;34.45;15.43;;;3.50;99.90;;;;;;5019230;28;20041;-82
2023/12/07 03:05:01;;;;;;;29.08;15.00;;;3.40;99.90;;;;;;5018529;28;20053;-84
2023/12/07 03:07:27;;;;;;;30.80;14.77;;;4.30;99.90;;;;;;5019013;28;20026;-82
2023/12/07 03:09:52;;;;;;;37.03;17.17;;;4.30;99.90;;;;;;5014128;28;20030;-81
2023/12/07 03:12:18;;;;;;;33.25;16.80;;;3.40;99.90;;;;;;5012887;28;20027;-82
2023/12/07 03:14:43;;;;;;;35.92;17.40;;;3.60;99.90;;;;;;5013896;28;20065;-82
2023/12/07 03:17:09;;;;;;;33.10;16.42;;;4.30;99.90;;;;;;5010909;28;20038;-84
2023/12/07 03:19:38;;;;;;;35.90;16.15;;;4.30;99.90;;;;;;5009173;28;20497;-82
2023/12/07 03:22:06;;;;;;;34.50;15.98;;;3.50;99.90;;;;;;5014765;28;20034;-79
2023/12/07 03:24:32;;;;;;;38.13;17.67;;;3.70;99.90;;;;;;5007931;28;20048;-82
2023/12/07 03:26:58;;;;;;;40.75;17.15;;;3.30;99.90;;;;;;5007335;28;20035;-84
2023/12/07 03:29:23;;;;;;;39.05;18.60;;;3.50;99.90;;;;;;5001301;28;20034;-83
2023/12/07 03:31:49;;;;;;;33.80;15.77;;;3.30;99.90;;;;;;5013014;28;20022;-82
2023/12/07 03:34:15;;;;;;;37.88;18.08;;;4.00;99.90;;;;;;5008890;28;20175;-81
2023/12/07 03:36:45;;;;;;;33.17;16.73;;;3.90;99.90;;;;;;5013976;28;20041;-81
2023/12/07 03:39:11;;;;;;;37.42;16.52;;;3.20;99.90;;;;;;5009863;28;20487;-81
2023/12/07 03:41:36;;;;;;;30.73;14.30;;;3.20;99.90;;;;;;5013916;28;20017;-85
2023/12/07 03:44:02;;;;;;;32.28;15.13;;;3.30;99.90;;;;;;5027278;28;20040;-85
2023/12/07 03:46:27;;;;;;;31.35;14.63;;;3.20;99.90;;;;;;5024013;28;20033;-84
2023/12/07 03:48:53;;;;;;;32.08;15.82;;;3.20;99.90;;;;;;5023936;28;20026;-86
2023/12/07 03:51:19;;;;;;;32.00;15.75;;;3.10;99.90;;;;;;5026943;28;20026;-84
2023/12/07 03:53:44;;;;;;;30.98;14.88;;;3.10;99.90;;;;;;5026124;28;20026;-83
2023/12/07 03:56:10;;;;;;;32.38;15.05;;;3.00;99.90;;;;;;5018533;28;20021;-84
2023/12/07 03:58:36;;;;;;;38.58;16.50;;;3.10;99.90;;;;;;5023097;28;20042;-83
2023/12/07 04:01:01;;;;;;;31.60;15.45;;;3.00;99.90;;;;;;5029512;28;20037;-85
2023/12/07 04:03:27;;;;;;;33.17;14.55;;;4.00;99.90;;;;;;5016615;28;20506;-85
2023/12/07 04:05:52;;;;;;;33.65;15.10;;;4.40;99.90;;;;;;5029233;28;20017;-83
2023/12/07 04:08:18;;;;;;;34.47;15.55;;;2.80;99.90;;;;;;5031799;28;20022;-84
2023/12/07 04:10:44;;;;;;;29.13;15.30;;;3.10;99.90;;;;;;5030481;28;20105;-84
2023/12/07 04:13:09;;;;;;;32.92;15.35;;;2.90;99.90;;;;;;5027827;28;20037;-82
2023/12/07 04:15:35;;;;;;;23.15;11.95;;;2.90;99.90;;;;;;5022723;28;20612;-85
2023/12/07 04:18:01;;;;;;;30.08;14.82;;;3.40;99.90;;;;;;5021181;28;20417;-82
2023/12/07 04:20:26;;;;;;;27.55;12.90;;;2.90;99.90;;;;;;5018612;28;20026;-85
2023/12/07 04:22:52;;;;;;;26.23;11.32;;;2.90;99.90;;;;;;5017363;28;20018;-85
2023/12/07 04:25:18;;;;;;;29.00;13.40;;;3.00;99.90;;;;;;5023805;28;20083;-85
2023/12/07 04:27:44;;;;;;;31.40;13.45;;;3.00;99.90;;;;;;5023697;28;20026;-82
2023/12/07 04:30:10;;;;;;;28.48;13.23;;;4.90;99.90;;;;;;5020406;28;20052;-83
2023/12/07 04:32:35;;;;;;;28.23;13.60;;;2.90;99.90;;;;;;5014030;28;20038;-85
2023/12/07 04:35:01;;;;;;;31.17;13.57;;;4.80;99.90;;;;;;5020092;28;20026;-83
2023/12/07 04:37:27;;;;;;;35.17;13.50;;;3.40;99.90;;;;;;5017246;28;20025;-82
2023/12/07 04:39:52;;;;;;;30.85;14.48;;;2.70;99.90;;;;;;5019353;28;20022;-82
2023/12/07 04:42:18;;;;;;;32.75;14.60;;;2.60;99.90;;;;;;5019788;28;20025;-81
2023/12/07 04:44:43;;;;;;;33.25;14.02;;;2.60;99.90;;;;;;5018877;28;20034;-82
2023/12/07 04:47:09;;;;;;;33.50;15.15;;;2.80;99.90;;;;;;5007968;28;20028;-82
2023/12/07 04:49:35;;;;;;;37.53;15.48;;;2.60;99.90;;;;;;5012667;28;20463;-83
2023/12/07 04:52:00;;;;;;;28.30;14.30;;;2.60;99.90;;;;;;5025024;28;20113;-83
2023/12/07 04:54:27;;;;;;;38.80;16.35;;;2.60;99.90;;;;;;5024280;28;20034;-82
2023/12/07 04:56:53;;;;;;;32.85;13.43;;;2.60;99.90;;;;;;5025441;28;20033;-83
2023/12/07 04:59:18;;;;;;;25.38;12.65;;;2.60;99.90;;;;;;5019939;28;20395;-84
2023/12/07 05:01:44;;;;;;;29.38;13.52;;;4.80;99.90;;;;;;5020212;28;20037;-82
2023/12/07 05:04:10;;;;;;;30.35;14.00;;;2.60;99.90;;;;;;4998134;28;20038;-83
2023/12/07 05:06:35;;;;;;;26.63;13.25;;;3.80;99.90;;;;;;5016980;28;20097;-85
2023/12/07 05:09:01;;;;;;;28.48;12.52;;;3.10;99.90;;;;;;5025407;28;20052;-83
2023/12/07 05:11:27;;;;;;;31.05;13.55;;;2.50;99.90;;;;;;5009053;28;20033;-84
2023/12/07 05:13:52;;;;;;;30.15;11.68;;;2.70;99.90;;;;;;5022031;28;20016;-81
2023/12/07 05:16:18;;;;;;;26.88;12.07;;;2.40;99.90;;;;;;5027246;28;20232;-83
2023/12/07 05:18:44;;;;;;;30.27;12.73;;;3.10;99.90;;;;;;5026847;28;20010;-81
2023/12/07 05:21:09;;;;;;;31.75;12.43;;;2.50;99.90;;;;;;5018719;28;20033;-84
2023/12/07 05:23:35;;;;;;;34.08;13.30;;;3.30;99.90;;;;;;5023675;28;20021;-84
2023/12/07 05:26:01;;;;;;;32.08;13.15;;;2.50;99.90;;;;;;5022384;28;20039;-83
2023/12/07 05:28:27;;;;;;;33.22;13.70;;;2.40;99.90;;;;;;5027394;28;20014;-81
2023/12/07 05:30:53;;;;;;;31.23;12.32;;;2.50;99.90;;;;;;5030356;28;20050;-83
2023/12/07 05:33:22;;;;;;;29.80;13.32;;;4.70;99.90;;;;;;5025212;28;20018;-83
2023/12/07 05:35:48;;;;;;;30.15;12.98;;;2.50;99.90;;;;;;5023466;28;20544;-84
2023/12/07 05:38:13;;;;;;;23.48;12.05;;;4.00;99.90;;;;;;5026318;28;20093;-83
2023/12/07 05:40:39;;;;;;;27.10;12.98;;;4.00;99.90;;;;;;5026146;28;20026;-83
2023/12/07 05:43:04;;;;;;;26.90;11.73;;;2.50;99.90;;;;;;5024997;28;20045;-82
2023/12/07 05:45:30;;;;;;;26.45;11.10;;;2.40;99.90;;;;;;5022125;28;20030;-84
2023/12/07 05:47:56;;;;;;;26.25;12.13;;;2.30;99.90;;;;;;5024537;28;20046;-82
2023/12/07 05:50:22;;;;;;;21.38;10.60;;;2.50;99.90;;;;;;5017084;28;20022;-81
2023/12/07 05:52:48;;;;;;;22.52;9.95;;;2.40;99.90;;;;;;5019073;28;20037;-81
2023/12/07 05:55:13;;;;;;;29.80;12.35;;;3.00;99.90;;;;;;5019585;28;20026;-81
2023/12/07 05:57:40;;;;;;;26.42;11.43;;;2.40;99.90;;;;;;5017133;28;20046;-82
2023/12/07 06:00:10;;;;;;;30.10;12.13;;;2.30;99.90;;;;;;5019536;28;20171;-81
2023/12/07 06:02:36;;;;;;;30.33;12.27;;;2.30;99.90;;;;;;5012251;28;20038;-84
2023/12/07 06:05:05;;;;;;;27.23;11.45;;;2.10;99.90;;;;;;5013082;28;20123;-81
2023/12/07 06:07:30;;;;;;;31.00;12.82;;;2.10;99.90;;;;;;5010246;28;20040;-82
2023/12/07 06:09:56;;;;;;;33.63;13.10;;;2.10;99.90;;;;;;5015623;28;20124;-84
2023/12/07 06:12:22;;;;;;;27.45;11.32;;;2.40;99.90;;;;;;5009296;28;20470;-81
2023/12/07 06:14:48;;;;;;;29.92;11.98;;;3.20;99.90;;;;;;4995923;28;20147;-82
2023/12/07 06:17:14;;;;;;;25.05;10.93;;;2.00;99.90;;;;;;4999010;28;20034;-83
2023/12/07 06:19:40;;;;;;;28.27;11.93;;;3.80;99.90;;;;;;5003993;28;20142;-81
2023/12/07 06:22:05;;;;;;;24.83;10.43;;;2.00;99.90;;;;;;5004850;28;20040;-81
2023/12/07 06:24:32;;;;;;;25.23;9.07;;;2.10;99.90;;;;;;5013275;28;20034;-82
2023/12/07 06:26:58;;;;;;;20.10;9.52;;;2.00;99.90;;;;;;5012866;28;20033;-82
2023/12/07 06:29:23;;;;;;;21.88;9.13;;;3.20;99.90;;;;;;5013298;28;20022;-81
2023/12/07 06:31:49;;;;;;;24.50;10.00;;;2.80;99.90;;;;;;5011228;28;20168;-82
2023/12/07 06:34:15;;;;;;;26.75;10.90;;;2.00;99.90;;;;;;4996120;28;20053;-83
2023/12/07 06:36:40;;;;;;;27.02;10.93;;;2.00;99.90;;;;;;5016137;28;20085;-81
2023/12/07 06:39:06;;;;;;;25.90;10.55;;;2.90;99.90;;;;;;5013943;28;20064;-80
2023/12/07 06:41:31;;;;;;;26.90;11.48;;;2.70;99.90;;;;;;5006279;28;20041;-82
2023/12/07 06:43:57;;;;;;;24.40;10.73;;;2.60;99.90;;;;;;5012608;28;20045;-80
2023/12/07 06:46:22;;;;;;;22.27;10.43;;;2.60;99.90;;;;;;5010359;28;20029;-80
2023/12/07 06:48:48;;;;;;;25.83;10.90;;;2.00;99.90;;;;;;5016264;28;20022;-81
2023/12/07 06:51:14;;;;;;;24.67;11.30;;;2.20;99.90;;;;;;5019647;28;20053;-80
2023/12/07 06:53:41;;;;;;;29.63;11.77;;;2.20;99.90;;;;;;5015387;28;20036;-78
2023/12/07 06:56:07;;;;;;;23.45;10.43;;;2.20;99.90;;;;;;5016970;28;20044;-80
2023/12/07 06:58:33;;;;;;;22.48;9.82;;;;;;;;;;5035902;22;20048;-87
2023/12/07 07:00:59;;;;;;;23.35;10.10;;;2.20;99.90;;;;;;5021122;28;20072;-82
2023/12/07 07:03:27;;;;;;;21.98;9.05;;;3.30;99.90;;;;;;5041119;28;20021;-82
2023/12/07 07:05:53;;;;;;;21.35;9.10;;;;;;;;;;5038795;28;20033;-79
2023/12/07 07:08:19;;;;;;;22.75;10.13;;;;;;;;;;5042889;28;20031;-90
2023/12/07 07:10:46;;;;;;;17.73;8.30;;;;;;;;;;5041535;28;20029;-83
2023/12/07 07:13:14;;;;;;;19.90;8.38;;;;;;;;;;5041764;28;20030;-88
2023/12/07 07:15:42;;;;;;;16.48;8.07;;;2.10;99.90;;;;;;5042206;28;20036;-85
2023/12/07 07:18:08;;;;;;;16.00;7.38;;;;;;;;;;5042443;28;20034;-85
2023/12/07 07:20:34;;;;;;;14.65;6.88;;;;;;;;;;5036896;28;20053;-84
2023/12/07 07:23:00;;;;;;;15.68;8.02;;;;;;;;;;5026574;28;20056;-82
2023/12/07 07:25:26;;;;;;;14.95;7.75;;;1.90;99.90;;;;;;5039373;28;20037;-87
2023/12/07 07:27:54;;;;;;;15.73;8.63;;;;;;;;;;5046947;28;20036;-84
2023/12/07 07:30:20;;;;;;;16.92;7.20;;;1.90;99.90;;;;;;5033939;28;20052;-81
2023/12/07 07:32:46;;;;;;;14.77;6.40;;;1.50;99.90;;;;;;5045985;28;20030;-80
2023/12/07 07:35:11;;;;;;;13.95;6.30;;;1.70;99.90;;;;;;5045286;28;20029;-81
2023/12/07 07:37:41;;;;;;;16.38;7.60;;;2.70;99.90;;;;;;5027685;28;20018;-84
2023/12/07 07:40:11;;;;;;;15.85;6.90;;;4.00;99.90;;;;;;5029291;28;20038;-81
2023/12/07 07:42:40;;;;;;;13.95;7.18;;;1.50;99.90;;;;;;5044087;28;20029;-82
2023/12/07 07:45:06;;;;;;;13.98;6.47;;;1.50;99.90;;;;;;5048992;28;20029;-82
2023/12/07 07:47:32;;;;;;;14.20;7.25;;;1.80;99.90;;;;;;5046802;28;20040;-82
2023/12/07 07:49:58;;;;;;;15.10;7.07;;;2.00;99.90;;;;;;5044148;28;20081;-82
2023/12/07 07:52:24;;;;;;;16.48;7.78;;;3.90;99.90;;;;;;5027451;28;20028;-81
2023/12/07 07:54:50;;;;;;;15.50;7.78;;;4.30;99.90;;;;;;5036825;28;20032;-81
2023/12/07 07:57:16;;;;;;;18.40;8.07;;;;;;;;;;5037901;28;20026;-84
2023/12/07 07:59:41;;;;;;;14.85;7.47;;;1.90;99.90;;;;;;5049664;28;20041;-82
2023/12/07 08:02:07;;;;;;;13.05;7.03;;;1.70;99.90;;;;;;5055141;28;20035;-81
2023/12/07 08:04:33;;;;;;;14.35;7.28;;;;;;;;;;5050360;28;20040;-86
2023/12/07 08:06:59;;;;;;;15.70;7.22;;;2.10;99.90;;;;;;5050048;28;20040;-83
2023/12/07 08:09:25;;;;;;;14.88;6.03;;;1.90;99.90;;;;;;5035411;28;20022;-82
2023/12/07 08:11:51;;;;;;;13.68;6.22;;;1.90;99.90;;;;;;5050723;28;20044;-84
2023/12/07 08:14:17;;;;;;;15.07;7.05;;;1.70;99.90;;;;;;5030422;28;20408;-81
2023/12/07 08:16:46;;;;;;;16.27;7.25;;;3.30;99.90;;;;;;5047497;28;20048;-84
2023/12/07 08:19:12;;;;;;;14.90;7.80;;;2.80;99.90;;;;;;5047720;28;20053;-82
2023/12/07 08:21:38;;;;;;;18.10;7.32;;;2.10;99.90;;;;;;5045586;28;20034;-83
2023/12/07 08:24:05;;;;;;;16.55;7.45;;;1.00;99.90;;;;;;5026163;28;20041;-82
2023/12/07 08:26:31;;;;;;;15.00;7.22;;;0.70;99.90;;;;;;5043679;28;20042;-81
2023/12/07 08:28:57;;;;;;;16.77;7.95;;;3.30;99.90;;;;;;5033695;28;20028;-79
2023/12/07 08:31:23;;;;;;;18.65;7.57;;;2.80;99.90;;;;;;5045691;28;20060;-79
2023/12/07 08:33:52;;;;;;;17.25;7.53;;;1.80;99.90;;;;;;5049839;28;20029;-83
2023/12/07 08:36:18;;;;;;;19.75;8.38;;;1.90;99.90;;;;;;5043869;28;20032;-79
2023/12/07 08:38:43;;;;;;;18.63;8.68;;;1.90;99.90;;;;;;5047386;28;20480;-83
2023/12/07 08:41:09;;;;;;;16.33;8.00;;;2.30;99.90;;;;;;5048431;28;20044;-82
2023/12/07 08:43:34;;;;;;;15.10;8.32;;;3.00;99.90;;;;;;5044665;28;20137;-83
2023/12/07 08:46:00;;;;;;;15.55;8.07;;;1.80;99.90;;;;;;5013685;28;20025;-81
2023/12/07 08:48:26;;;;;;;15.75;7.93;;;0.70;99.90;;;;;;5027840;28;20017;-86
2023/12/07 08:50:52;;;;;;;16.00;8.23;;;2.30;99.90;;;;;;5011747;28;20045;-81
2023/12/07 08:53:17;;;;;;;15.80;7.70;;;3.70;99.90;;;;;;5032492;28;20033;-88
2023/12/07 08:55:43;;;;;;;14.18;7.20;;;2.10;99.90;;;;;;5048495;28;20037;-87
2023/12/07 08:58:10;;;;;;;17.30;7.82;;;2.20;99.90;;;;;;5016353;28;20053;-82
2023/12/07 09:00:36;;;;;;;18.30;7.82;;;1.60;99.90;;;;;;5028564;28;20033;-82
2023/12/07 09:03:02;;;;;;;16.00;7.97;;;4.20;99.90;;;;;;5031481;28;20092;-87
2023/12/07 09:05:28;;;;;;;13.90;7.40;;;3.10;99.90;;;;;;5050408;28;20022;-85
2023/12/07 09:07:53;;;;;;;13.98;7.07;;;4.40;99.90;;;;;;5048090;28;20031;-83
2023/12/07 09:10:20;;;;;;;14.52;7.60;;;;;;;;;;5049911;28;20024;-80
2023/12/07 09:12:45;;;;;;;17.60;8.25;;;2.20;99.90;;;;;;5044048;28;20025;-84
2023/12/07 09:15:12;;;;;;;14.90;7.18;;;;;;;;;;5043917;28;20022;-81
2023/12/07 09:17:39;;;;;;;15.77;7.25;;;2.40;99.90;;;;;;5041893;28;20033;-85
2023/12/07 09:20:12;;;;;;;15.25;7.05;;;3.10;99.90;;;;;;5025926;28;20038;-82
2023/12/07 09:22:45;;;;;;;13.70;6.85;;;2.60;99.90;;;;;;5029803;28;20037;-83
2023/12/07 09:25:11;;;;;;;19.35;8.07;;;2.50;99.90;;;;;;5032953;28;20025;-82
2023/12/07 09:27:38;;;;;;;16.10;7.97;;;5.00;99.90;;;;;;5049709;28;20052;-80
2023/12/07 09:30:10;;;;;;;16.60;8.15;;;2.50;99.90;;;;;;5043911;28;20022;-85
2023/12/07 09:32:38;;;;;;;14.57;7.50;;;2.60;99.90;;;;;;5043778;28;20053;-80
2023/12/07 09:35:07;;;;;;;15.55;8.35;;;4.00;99.90;;;;;;5052045;28;20029;-84
2023/12/07 09:37:36;;;;;;;14.95;7.93;;;2.60;99.90;;;;;;5050894;28;20034;-82
2023/12/07 09:40:04;;;;;;;18.67;8.75;;;;;;;;;;5045642;28;20468;-82
2023/12/07 09:42:30;;;;;;;19.45;9.40;;;2.60;99.90;;;;;;5034948;28;20037;-84
2023/12/07 09:44:56;;;;;;;16.15;8.85;;;2.70;99.90;;;;;;5048387;28;20037;-80
2023/12/07 09:47:21;;;;;;;18.30;9.00;;;4.30;99.90;;;;;;5051864;28;20043;-86
2023/12/07 09:49:47;;;;;;;17.50;8.38;;;2.70;99.90;;;;;;5028629;28;20026;-81
2023/12/07 09:52:15;;;;;;;20.98;9.23;;;4.30;99.90;;;;;;5044059;28;20029;-82
2023/12/07 09:54:42;;;;;;;18.15;9.57;;;2.70;99.90;;;;;;5049408;28;20032;-83
2023/12/07 09:57:09;;;;;;;17.52;8.48;;;5.50;99.90;;;;;;5033900;28;20463;-90
2023/12/07 09:59:35;;;;;;;17.75;8.77;;;2.40;99.90;;;;;;5034074;28;20037;-85
2023/12/07 10:02:01;;;;;;;19.67;8.43;;;4.90;99.90;;;;;;5044021;28;20049;-87
2023/12/07 10:04:27;;;;;;;14.20;8.05;;;4.80;99.90;;;;;;5030871;28;20059;-84
2023/12/07 10:06:53;;;;;;;17.65;8.05;;;5.50;99.90;;;;;;5045056;28;20660;-86
2023/12/07 10:09:21;;;;;;;17.17;8.07;;;;;;;;;;5047023;28;20032;-84
2023/12/07 10:11:47;;;;;;;18.35;8.52;;;;;;;;;;5039449;28;20033;-82
2023/12/07 10:14:13;;;;;;;16.38;8.25;;;;;;;;;;5038618;28;20779;-84
2023/12/07 10:16:39;;;;;;;20.15;8.73;;;;;;;;;;5026555;28;20064;-83
2023/12/07 10:19:24;;;;;;;17.40;8.57;;;3.10;99.90;;;;;;5037593;28;20037;-83
2023/12/07 10:21:51;;;;;;;17.83;9.02;;;;;;;;;;5017177;28;20186;-84
2023/12/07 10:24:19;;;;;;;17.83;8.80;;;3.10;99.90;;;;;;5033187;28;20040;-85
2023/12/07 10:26:46;;;;;;;15.45;7.50;;;3.30;99.90;;;;;;5037994;28;20025;-82
2023/12/07 10:29:12;;;;;;;18.83;9.23;;;;;;;;;;5045338;28;20021;-82
2023/12/07 10:31:38;;;;;;;18.00;8.98;;;3.20;99.90;;;;;;5028691;28;20033;-86
2023/12/07 10:34:08;;;;;;;18.98;9.32;;;3.10;99.90;;;;;;5016405;28;20075;-84
2023/12/07 10:36:34;;;;;;;20.67;10.00;;;2.90;99.90;;;;;;5032063;28;20021;-80
2023/12/07 10:39:01;;;;;;;19.00;9.73;;;3.70;99.90;;;;;;5019187;28;20036;-81
2023/12/07 10:41:27;;;;;;;19.05;9.88;;;3.00;99.90;;;;;;5039361;28;20052;-89
2023/12/07 10:43:59;;;;;;;19.42;9.25;;;3.70;99.90;;;;;;5034368;28;20661;-83
2023/12/07 10:46:26;;;;;;;18.75;9.38;;;3.20;99.90;;;;;;5016947;28;20487;-82
2023/12/07 10:48:59;;;;;;;19.73;9.30;;;3.90;99.90;;;;;;5034946;28;20384;-82
2023/12/07 10:51:33;;;;;;;20.08;9.65;;;4.00;99.90;;;;;;5026781;28;20017;-92
2023/12/07 10:54:02;;;;;;;18.55;9.20;;;3.30;99.90;;;;;;5018979;28;20037;-81
2023/12/07 10:56:34;;;;;;;17.10;9.30;;;2.80;99.90;;;;;;5015361;28;20033;-81
2023/12/07 10:59:00;;;;;;;16.50;8.55;;;3.50;99.90;;;;;;5017605;28;20538;-80
2023/12/07 11:01:27;;;;;;;15.38;8.27;;;4.20;99.90;;;;;;5020847;28;20779;-83
2023/12/07 11:03:57;;;;;;;13.75;7.55;;;2.60;99.90;;;;;;5032947;28;20021;-80
2023/12/07 11:06:26;;;;;;;14.55;7.47;;;5.60;99.90;;;;;;5032726;28;20025;-81
2023/12/07 11:09:00;;;;;;;17.13;8.10;;;4.70;99.90;;;;;;5033995;28;20032;-81
2023/12/07 11:11:52;;;;;;;16.02;7.93;;;3.30;99.90;;;;;;5017145;28;20028;-80
2023/12/07 11:14:37;;;;;;;15.20;8.45;;;2.80;99.90;;;;;;5013702;28;20117;-81
2023/12/07 11:17:24;;;;;;;15.38;7.82;;;3.50;99.90;;;;;;5021003;28;20029;-80
2023/12/07 11:19:58;;;;;;;14.95;8.23;;;2.40;99.90;;;;;;5034317;28;20239;-79
2023/12/07 11:22:27;;;;;;;15.95;7.95;;;3.10;99.90;;;;;;5016321;28;20375;-83
2023/12/07 11:28:39;;;;;;;14.85;8.02;;;3.60;99.90;;;;;;4976697;28;20038;-82
2023/12/07 11:31:16;;;;;;;14.43;7.68;;;2.80;99.90;;;;;;4999210;28;20033;-83
2023/12/07 11:34:14;;;;;;;13.55;6.78;;;3.40;99.90;;;;;;5035743;28;20059;-81
2023/12/07 11:36:41;;;;;;;14.07;7.35;;;;;;;;;;5035918;28;20049;-79
2023/12/07 11:39:12;;;;;;;15.63;8.32;;;3.30;99.90;;;;;;5021248;28;20383;-80
2023/12/07 11:42:54;;;;;;;11.52;6.35;;;3.40;99.90;;;;;;5021963;28;20426;-82
2023/12/07 11:45:43;;;;;;;;;;;;;;;;;;;;;
2023/12/07 11:48:18;;;;;;;15.00;7.97;;;3.30;99.90;;;;;;5036259;28;20043;-81
2023/12/07 11:51:11;;;;;;;14.20;7.45;;;3.60;99.90;;;;;;5024310;28;20035;-79
2023/12/07 11:53:38;;;;;;;14.95;7.80;;;3.40;99.90;;;;;;5018365;28;20061;-81
2023/12/07 11:56:07;;;;;;;16.23;7.50;;;4.90;99.90;;;;;;5019305;28;20376;-81
2023/12/07 11:58:34;;;;;;;12.48;6.68;;;3.50;99.90;;;;;;5035592;28;20033;-81
2023/12/07 12:01:01;;;;;;;16.27;7.20;;;5.30;99.90;;;;;;5020874;28;20470;-80
2023/12/07 12:03:28;;;;;;;13.80;7.45;;;3.70;99.90;;;;;;5036508;28;20060;-85
2023/12/07 12:05:57;;;;;;;12.13;7.18;;;3.70;99.90;;;;;;5042130;28;20363;-82
2023/12/07 12:08:23;;;;;;;13.77;7.13;;;3.70;99.90;;;;;;5022396;28;20029;-81
2023/12/07 12:10:56;;;;;;;11.35;6.63;;;3.80;99.90;;;;;;5032687;28;20036;-80
2023/12/07 12:13:36;;;;;;;11.35;6.55;;;3.80;99.90;;;;;;5036020;28;20021;-83
2023/12/07 12:16:02;;;;;;;13.23;7.22;;;3.70;99.90;;;;;;5034199;28;20037;-81
2023/12/07 12:18:28;;;;;;;11.18;6.35;;;3.20;99.90;;;;;;5038182;28;20025;-82
2023/12/07 12:20:54;;;;;;;12.40;6.43;;;4.50;99.90;;;;;;5036252;28;20036;-82
2023/12/07 12:23:20;;;;;;;12.35;7.20;;;5.00;99.90;;;;;;5017554;28;20030;-81
2023/12/07 12:25:47;;;;;;;12.73;7.40;;;4.50;99.90;;;;;;5039905;28;20044;-85
2023/12/07 12:28:16;;;;;;;11.55;6.70;;;3.90;99.90;;;;;;5023207;28;20026;-80
2023/12/07 12:30:42;;;;;;;10.82;6.78;;;6.10;99.90;;;;;;5021041;28;20392;-82
2023/12/07 12:33:08;;;;;;;11.07;6.32;;;4.00;99.90;;;;;;5016473;28;20048;-84
2023/12/07 12:35:33;;;;;;;10.68;6.32;;;4.00;99.90;;;;;;5019780;28;20750;-81
2023/12/07 12:37:59;;;;;;;12.20;6.72;;;5.50;99.90;;;;;;5025970;28;20029;-78
2023/12/07 12:40:31;;;;;;;11.73;6.65;;;4.10;99.90;;;;;;5046460;28;20033;-81
2023/12/07 12:42:57;;;;;;;9.25;5.68;;;4.40;99.90;;;;;;5037572;28;20035;-83
2023/12/07 12:45:23;;;;;;;11.60;6.15;;;5.90;99.90;;;;;;5046255;28;20083;-82
2023/12/07 12:47:49;;;;;;;11.95;5.93;;;6.10;99.90;;;;;;5017883;28;20025;-82
2023/12/07 12:50:33;;;;;;;11.95;6.50;;;5.70;99.90;;;;;;5032227;28;20025;-87
2023/12/07 12:53:02;;;;;;;11.88;6.35;;;4.00;99.90;;;;;;5036681;28;20089;-81